Time;durP1;ratioP1;P1;durP2;ratioP2;P2;SDS_P1;SDS_P2;PMS_P1;PMS_P2;Temp;Humidity;BMP_temperature;BMP_pressure;BME280_temperature;BME280_humidity;BME280_pressure;Samples;Min_cycle;Max_cycle;Signal;HPM_P1;HPM_P2
2021/01/14 00:00:39;;;;;;;17.82;10.18;;;;;;;0.10;60.12;99134.31;1779890;79;21818;-57
2021/01/14 00:03:11;;;;;;;18.85;8.80;;;;;;;0.16;60.00;99143.02;1775860;79;21164;-58
2021/01/14 00:05:40;;;;;;;18.25;9.45;;;;;;;0.18;59.91;99134.71;1754834;79;21198;-58
2021/01/14 00:08:07;;;;;;;16.87;9.08;;;;;;;0.18;59.81;99140.73;1780472;79;21109;-59
2021/01/14 00:10:36;;;;;;;16.07;9.90;;;;;;;0.17;59.83;99133.89;1777957;79;21152;-59
2021/01/14 00:13:07;;;;;;;15.78;9.80;;;;;;;0.20;59.88;99140.63;1811379;78;21138;-59
2021/01/14 00:15:36;;;;;;;14.00;8.53;;;;;;;0.19;59.88;99146.73;1755689;79;21178;-59
2021/01/14 00:18:04;;;;;;;15.83;9.43;;;;;;;0.13;59.78;99140.14;1785864;79;21132;-58
2021/01/14 00:20:31;;;;;;;14.35;8.13;;;;;;;0.15;59.92;99135.73;1787310;79;21250;-59
2021/01/14 00:23:01;;;;;;;15.88;7.85;;;;;;;0.12;59.85;99142.84;1766878;79;21132;-59
2021/01/14 00:25:29;;;;;;;14.47;7.37;;;;;;;0.14;59.77;99144.41;1787987;79;21612;-58
2021/01/14 00:27:57;;;;;;;15.58;7.80;;;;;;;0.11;59.57;99139.41;1799349;79;21163;-59
2021/01/14 00:30:29;;;;;;;11.68;6.45;;;;;;;0.05;59.63;99133.30;1782599;80;21197;-58
2021/01/14 00:32:58;;;;;;;11.33;6.70;;;;;;;-0.02;59.77;99131.95;1740726;81;21215;-58
2021/01/14 00:35:26;;;;;;;13.93;8.55;;;;;;;-0.11;59.67;99130.73;1740287;80;21616;-59
2021/01/14 00:37:55;;;;;;;14.03;6.92;;;;;;;-0.13;59.83;99130.45;1753522;80;21177;-59
2021/01/14 00:40:30;;;;;;;15.35;7.72;;;;;;;-0.13;60.02;99135.16;1769690;79;21134;-59
2021/01/14 00:43:08;;;;;;;12.47;7.22;;;;;;;-0.09;59.92;99134.53;1771235;79;21135;-59
2021/01/14 00:45:35;;;;;;;13.38;7.60;;;;;;;-0.02;59.80;99138.42;1755275;80;21174;-60
2021/01/14 00:48:05;;;;;;;17.07;8.38;;;;;;;-0.02;59.84;99135.84;1743380;80;22218;-58
2021/01/14 00:50:32;;;;;;;12.93;7.90;;;;;;;0.01;59.77;99143.90;1767568;79;21202;-58
2021/01/14 00:53:00;;;;;;;15.05;7.87;;;;;;;0.03;59.86;99144.17;1763683;79;21140;-58
2021/01/14 00:55:27;;;;;;;13.10;7.50;;;;;;;0.05;59.88;99150.11;1762215;79;21167;-58
2021/01/14 00:57:55;;;;;;;13.90;7.10;;;;;;;0.09;59.84;99148.18;1806063;79;21571;-59
2021/01/14 01:00:23;;;;;;;14.68;8.35;;;;;;;0.09;59.81;99149.01;1780554;79;21615;-59
2021/01/14 01:02:52;;;;;;;15.15;7.87;;;;;;;0.09;59.86;99146.89;1795970;79;21206;-59
2021/01/14 01:05:21;;;;;;;13.68;7.83;;;;;;;0.09;60.04;99141.25;1784475;79;21144;-59
2021/01/14 01:07:52;;;;;;;14.70;7.62;;;;;;;0.12;60.02;99138.48;1785882;79;21152;-59
2021/01/14 01:10:20;;;;;;;15.10;8.20;;;;;;;0.13;60.04;99139.31;1786036;79;21164;-59
2021/01/14 01:12:55;;;;;;;17.67;9.38;;;;;;;0.12;60.11;99132.02;1769204;79;21179;-59
2021/01/14 01:15:24;;;;;;;;;;;;;;;0.16;60.21;99137.38;1782414;79;21745;-59
2021/01/14 01:17:52;;;;;;;15.45;8.00;;;;;;;0.17;60.19;99140.36;1782918;79;20218;-59
2021/01/14 01:20:20;;;;;;;14.30;7.10;;;;;;;0.12;60.31;99141.55;1783557;79;21124;-59
2021/01/14 01:22:48;;;;;;;16.65;8.60;;;;;;;0.09;60.45;99141.72;1784273;79;21168;-59
2021/01/14 01:25:15;;;;;;;18.67;9.38;;;;;;;0.14;60.52;99140.52;1809324;78;22558;-59
2021/01/14 01:27:43;;;;;;;13.85;8.20;;;;;;;0.16;60.55;99140.44;1796034;79;21454;-59
2021/01/14 01:30:13;;;;;;;15.05;8.95;;;;;;;0.23;60.35;99136.57;1773372;79;21128;-59
2021/01/14 01:32:42;;;;;;;17.12;9.15;;;;;;;0.25;60.24;99136.02;1755102;79;21166;-59
2021/01/14 01:35:12;;;;;;;13.70;8.43;;;;;;;0.28;60.12;99141.48;1792818;79;21176;-59
2021/01/14 01:37:40;;;;;;;17.55;8.75;;;;;;;0.29;60.19;99143.17;1776017;79;21163;-59
2021/01/14 01:40:11;;;;;;;14.40;8.65;;;;;;;0.34;60.09;99143.73;1809429;79;21402;-59
2021/01/14 01:42:40;;;;;;;17.67;10.80;;;;;;;0.35;60.05;99141.06;1764183;79;21171;-59
2021/01/14 01:45:09;;;;;;;17.77;10.55;;;;;;;0.38;60.04;99138.73;1776476;79;21178;-59
2021/01/14 01:47:37;;;;;;;17.98;10.10;;;;;;;0.41;60.05;99137.28;1794743;78;21207;-59
2021/01/14 01:50:07;;;;;;;20.52;11.28;;;;;;;0.46;59.97;99142.19;1767604;79;21624;-59
2021/01/14 01:52:35;;;;;;;17.05;9.78;;;;;;;0.49;59.84;99145.43;1785109;79;21198;-59
2021/01/14 01:55:04;;;;;;;17.12;10.30;;;;;;;0.53;59.75;99143.02;1795733;79;21168;-59
2021/01/14 01:57:33;;;;;;;17.15;10.20;;;;;;;0.58;59.65;99139.34;1780218;80;21100;-59
2021/01/14 02:00:01;;;;;;;16.57;9.88;;;;;;;0.58;59.67;99140.17;1768905;79;21107;-59
2021/01/14 02:02:30;;;;;;;20.62;9.58;;;;;;;0.65;59.55;99138.88;1773476;79;21596;-58
2021/01/14 02:04:58;;;;;;;18.42;9.10;;;;;;;0.67;59.48;99150.44;1788162;79;21183;-59
2021/01/14 02:07:43;;;;;;;18.75;10.35;;;;;;;0.70;59.46;99155.44;1797539;79;21117;-59
2021/01/14 02:10:32;;;;;;;14.65;9.03;;;;;;;0.69;59.49;99157.20;1815196;79;21610;-59
2021/01/14 02:13:18;;;;;;;17.35;10.40;;;;;;;0.72;59.49;99163.50;1792420;79;21567;-59
2021/01/14 02:15:57;;;;;;;15.20;9.88;;;;;;;0.74;59.54;99147.88;1818912;76;23249;-59
2021/01/14 02:18:25;;;;;;;15.83;8.65;;;;;;;0.72;59.52;99161.36;1786227;79;21669;-57
2021/01/14 02:21:04;;;;;;;17.62;10.18;;;;;;;0.72;59.57;99156.17;1769855;79;21172;-58
2021/01/14 02:24:10;;;;;;;16.87;10.23;;;;;;;0.74;59.56;99150.00;1787412;79;22811;-59
2021/01/14 02:26:39;;;;;;;16.50;10.30;;;;;;;0.70;59.57;99153.67;1740585;80;21025;-58
2021/01/14 02:29:07;;;;;;;17.77;10.05;;;;;;;0.69;59.65;99153.33;1728276;80;21395;-58
2021/01/14 02:31:36;;;;;;;17.07;9.50;;;;;;;0.70;59.62;99148.50;1741320;80;21152;-58
2021/01/14 02:34:04;;;;;;;17.10;10.03;;;;;;;0.72;59.51;99153.59;1772291;80;21555;-58
2021/01/14 02:36:32;;;;;;;21.45;11.05;;;;;;;0.70;59.55;99144.61;1751911;80;21247;-58
2021/01/14 02:38:59;;;;;;;18.17;11.10;;;;;;;0.69;59.68;99143.41;1744098;81;21659;-59
2021/01/14 02:41:27;;;;;;;17.30;9.13;;;;;;;0.70;59.69;99136.02;1761849;80;21149;-59
2021/01/14 02:43:55;;;;;;;14.47;10.13;;;;;;;0.77;59.64;99133.44;1748393;80;21171;-59
2021/01/14 02:46:22;;;;;;;19.87;10.85;;;;;;;0.77;59.57;99128.25;1774814;80;21109;-59
2021/01/14 02:49:09;;;;;;;14.75;9.03;;;;;;;0.80;59.49;99124.66;1753165;80;21179;-59
2021/01/14 02:51:50;;;;;;;16.57;10.18;;;;;;;0.79;59.58;99127.73;1776986;79;21160;-58
2021/01/14 02:54:18;;;;;;;17.98;10.43;;;;;;;0.84;59.67;99130.88;1740150;81;21535;-58
2021/01/14 02:56:49;;;;;;;18.60;11.00;;;;;;;0.84;59.64;99130.88;1770077;80;21175;-58
2021/01/14 02:59:16;;;;;;;19.32;11.22;;;;;;;0.86;59.65;99125.60;1756681;80;21180;-58
2021/01/14 03:01:44;;;;;;;15.63;10.78;;;;;;;0.87;59.56;99125.48;1750936;80;21140;-58
2021/01/14 03:04:11;;;;;;;23.18;12.60;;;;;;;0.87;59.56;99129.37;1770234;80;21152;-58
2021/01/14 03:06:39;;;;;;;20.48;11.70;;;;;;;0.87;59.62;99131.95;1745275;80;21155;-58
2021/01/14 03:09:07;;;;;;;19.77;12.33;;;;;;;0.87;59.52;99128.07;1761419;80;21599;-58
2021/01/14 03:11:35;;;;;;;19.45;10.72;;;;;;;0.89;59.61;99132.72;1765864;80;21105;-58
2021/01/14 03:14:02;;;;;;;19.90;10.60;;;;;;;0.91;59.58;99128.27;1763782;79;21227;-58
2021/01/14 03:16:39;;;;;;;18.12;9.83;;;;;;;0.95;59.65;99137.98;1747493;80;21580;-58
2021/01/14 03:19:06;;;;;;;15.25;9.40;;;;;;;0.98;59.62;99125.33;1776438;80;21199;-58
2021/01/14 03:21:34;;;;;;;18.20;10.70;;;;;;;1.03;59.50;99127.17;1778541;80;21211;-58
2021/01/14 03:24:03;;;;;;;19.30;11.75;;;;;;;1.03;59.35;99120.70;1772625;80;21133;-58
2021/01/14 03:26:30;;;;;;;22.05;11.28;;;;;;;1.01;59.27;99120.78;1758830;80;21228;-58
2021/01/14 03:28:58;;;;;;;16.12;10.80;;;;;;;0.98;59.30;99126.14;1769998;80;21195;-58
2021/01/14 03:31:25;;;;;;;17.98;10.98;;;;;;;1.00;59.30;99129.47;1750159;80;23461;-58
2021/01/14 03:33:53;;;;;;;24.65;12.60;;;;;;;0.96;59.36;99125.86;1747550;80;21132;-58
2021/01/14 03:36:21;;;;;;;18.73;10.98;;;;;;;0.98;59.50;99130.50;1750749;80;21209;-58
2021/01/14 03:38:48;;;;;;;20.57;11.25;;;;;;;1.02;59.59;99141.03;1769042;80;21160;-58
2021/01/14 03:41:19;;;;;;;20.40;11.18;;;;;;;1.09;59.53;99144.91;1751215;80;21168;-58
2021/01/14 03:43:46;;;;;;;16.77;10.40;;;;;;;1.11;59.43;99144.38;1738439;80;21834;-58
2021/01/14 03:46:16;;;;;;;19.70;12.07;;;;;;;1.16;59.40;99147.52;1695193;84;21606;-58
2021/01/14 03:48:45;;;;;;;22.10;11.97;;;;;;;1.13;59.30;99147.70;1766392;80;21603;-58
2021/01/14 03:51:19;;;;;;;21.85;12.70;;;;;;;1.12;59.30;99144.73;1751815;80;21153;-58
2021/01/14 04:04:27;;;;;;;20.48;12.58;;;;;;;0.91;59.99;99141.22;1847453;74;23584;-59
2021/01/14 04:06:55;;;;;;;20.23;12.03;;;;;;;0.82;60.16;99143.52;1823247;77;21119;-59
2021/01/14 04:09:41;;;;;;;23.67;12.55;;;;;;;0.84;60.28;99141.23;1824935;76;22968;-60
2021/01/14 04:12:09;;;;;;;21.82;14.15;;;;;;;0.86;60.26;99140.67;1770421;79;21180;-61
2021/01/14 04:14:37;;;;;;;23.77;14.07;;;;;;;0.87;60.30;99138.91;1795131;78;21198;-61
2021/01/14 04:17:05;;;;;;;24.87;15.25;;;;;;;0.87;60.37;99141.02;1800919;79;21160;-61
2021/01/14 04:19:33;;;;;;;25.10;14.68;;;;;;;0.85;60.54;99141.58;1805811;79;21187;-61
2021/01/14 04:22:01;;;;;;;22.20;14.87;;;;;;;0.89;60.56;99136.61;1751730;79;21156;-60
2021/01/14 04:24:36;;;;;;;26.00;15.80;;;;;;;0.90;60.63;99134.37;1792330;79;21096;-60
2021/01/14 04:26:58;;;;;;;26.10;15.00;;;;;;;0.91;60.65;99134.75;1768944;79;21021;-60
2021/01/14 04:29:25;;;;;;;23.92;14.15;;;;;;;0.89;60.67;99136.61;1799316;78;21622;-60
2021/01/14 04:31:52;;;;;;;28.27;15.15;;;;;;;0.92;60.70;99135.13;1799436;78;21168;-61
2021/01/14 04:34:20;;;;;;;26.50;15.03;;;;;;;0.95;60.71;99134.57;1797053;79;21155;-60
2021/01/14 04:36:50;;;;;;;25.27;13.85;;;;;;;0.97;60.69;99131.42;1802254;78;21163;-60
2021/01/14 04:39:21;;;;;;;25.23;14.05;;;;;;;0.99;60.80;99132.15;1779199;79;21168;-60
2021/01/14 04:41:48;;;;;;;26.20;15.08;;;;;;;1.02;60.76;99140.56;1767424;79;21147;-60
2021/01/14 04:44:16;;;;;;;26.73;14.98;;;;;;;1.04;60.84;99148.25;1773446;79;21179;-60
2021/01/14 04:46:48;;;;;;;21.07;12.55;;;;;;;1.08;60.76;99145.86;1804261;79;21672;-61
2021/01/14 04:49:17;;;;;;;23.80;13.80;;;;;;;1.11;60.73;99143.09;1775763;79;21235;-60
2021/01/14 04:52:04;;;;;;;23.60;14.93;;;;;;;1.16;60.66;99139.75;1870782;76;22660;-61
2021/01/14 04:54:35;;;;;;;25.15;14.70;;;;;;;1.14;60.67;99144.17;1824162;77;21156;-61
2021/01/14 04:59:55;;;;;;;22.77;13.80;;;;;;;1.16;60.63;99139.75;1875812;76;22735;-60
2021/01/14 05:02:25;;;;;;;23.12;13.70;;;;;;;1.13;60.55;99132.59;1812817;77;21143;-60
2021/01/14 05:04:54;;;;;;;25.88;14.00;;;;;;;1.16;60.55;99131.97;1786859;78;21210;-59
2021/01/14 05:07:32;;;;;;;21.75;13.68;;;;;;;1.14;60.46;99126.50;1813670;78;21092;-60
2021/01/14 05:10:05;;;;;;;22.67;13.22;;;;;;;1.16;60.35;99128.09;1809456;78;21188;-60
2021/01/14 05:12:34;;;;;;;22.85;13.08;;;;;;;1.13;60.39;99126.98;1805013;78;21737;-60
2021/01/14 05:18:00;;;;;;;26.60;13.72;;;;;;;1.17;60.42;99133.63;1737561;80;21085;-60
2021/01/14 05:20:28;;;;;;;21.57;12.75;;;;;;;1.19;60.34;99133.05;1738096;82;21054;-60
2021/01/14 05:23:02;;;;;;;23.70;13.20;;;;;;;1.21;60.20;99134.27;1743856;80;21146;-59
2021/01/14 05:25:29;;;;;;;20.30;13.05;;;;;;;1.22;60.11;99139.83;1744153;80;21217;-61
2021/01/14 05:28:13;;;;;;;22.73;13.00;;;;;;;1.23;60.10;99137.14;1737635;80;21133;-59
2021/01/14 05:30:42;;;;;;;21.25;14.43;;;;;;;1.22;60.17;99136.77;1716118;82;21113;-60
2021/01/14 05:44:38;;;;;;;31.42;16.65;;;;;;;2.76;57.55;99140.34;1836588;75;22496;-59
2021/01/14 06:08:44;;;;;;;21.40;13.85;;;;;;;1.51;59.33;99139.78;1656094;81;22162;-61
2021/01/14 06:11:22;;;;;;;28.52;15.53;;;;;;;1.33;59.66;99144.34;1618615;86;21311;-58
2021/01/14 06:13:50;;;;;;;25.02;14.03;;;;;;;1.24;59.98;99146.56;1615138;86;21279;-60
2021/01/14 06:16:18;;;;;;;26.87;14.55;;;;;;;1.23;60.16;99151.39;1624790;86;21307;-60
2021/01/14 06:19:07;;;;;;;25.35;14.20;;;;;;;1.19;60.22;99155.08;1602887;86;21214;-58
2021/01/14 06:21:48;;;;;;;23.57;14.07;;;;;;;1.17;60.47;99148.34;1628339;86;21219;-59
2021/01/14 06:24:37;;;;;;;25.10;15.43;;;;;;;1.17;60.72;99146.58;1761828;79;22868;-60
2021/01/14 06:27:09;;;;;;;21.33;12.55;;;;;;;1.17;60.65;99150.47;1733278;82;21239;-60
2021/01/14 06:29:41;;;;;;;22.05;13.98;;;;;;;1.18;60.82;99148.25;1730532;82;21644;-59
2021/01/14 06:32:15;;;;;;;23.65;14.55;;;;;;;1.21;60.81;99151.11;1737900;82;21188;-59
2021/01/14 06:34:49;;;;;;;27.77;14.75;;;;;;;1.23;60.93;99150.10;1725534;82;21521;-60
2021/01/14 06:37:20;;;;;;;25.50;14.80;;;;;;;1.27;60.94;99148.97;1699345;82;21251;-61
2021/01/14 06:39:54;;;;;;;29.80;15.30;;;;;;;1.30;60.92;99150.55;1700276;82;21667;-60
2021/01/14 06:42:36;;;;;;;24.07;14.58;;;;;;;1.32;60.92;99151.28;1713543;82;22640;-60
2021/01/14 06:45:08;;;;;;;27.30;16.07;;;;;;;1.36;60.87;99147.59;1733802;82;21216;-60
2021/01/14 06:47:46;;;;;;;23.80;13.83;;;;;;;1.37;61.00;99151.84;1729987;82;21599;-59
2021/01/14 06:50:23;;;;;;;23.87;13.93;;;;;;;1.40;61.07;99140.46;1730471;81;21203;-59
2021/01/14 06:53:02;;;;;;;23.55;14.07;;;;;;;1.42;61.07;99145.08;1737586;82;21241;-56
2021/01/14 06:55:36;;;;;;;23.32;15.35;;;;;;;1.50;61.11;99149.33;1743673;82;21670;-58
2021/01/14 06:58:10;;;;;;;25.37;14.87;;;;;;;1.52;60.99;99144.88;1702682;82;21235;-59
2021/01/14 07:00:43;;;;;;;21.15;13.68;;;;;;;1.52;61.06;99144.88;1732960;82;21760;-56
2021/01/14 07:03:24;;;;;;;23.75;14.78;;;;;;;1.53;61.13;99154.33;1710801;82;21592;-57
2021/01/14 07:06:01;;;;;;;27.45;14.83;;;;;;;1.54;61.07;99157.27;1704266;82;21611;-57
2021/01/14 07:08:57;;;;;;;22.70;13.62;;;;;;;1.57;61.17;99159.67;1735432;82;21208;-56
2021/01/14 07:11:27;;;;;;;21.65;12.85;;;;;;;1.54;61.26;99159.86;1737628;82;21144;-56
2021/01/14 07:13:55;;;;;;;22.35;14.00;;;;;;;1.49;61.51;99170.98;1684647;82;21229;-56
2021/01/14 07:16:23;;;;;;;23.52;13.25;;;;;;;1.47;61.54;99170.25;1735692;82;21137;-56
2021/01/14 07:18:51;;;;;;;23.75;13.83;;;;;;;1.51;61.59;99168.30;1706643;82;21224;-56
2021/01/14 07:21:34;;;;;;;17.82;11.33;;;;;;;1.52;61.57;99175.16;1735060;82;21256;-56
2021/01/14 07:24:26;;;;;;;22.52;13.08;;;;;;;1.53;61.49;99169.87;1733250;81;21638;-57
2021/01/14 07:26:56;;;;;;;23.25;12.88;;;;;;;1.52;61.67;99172.56;1706884;82;21235;-56
2021/01/14 07:29:25;;;;;;;25.00;13.48;;;;;;;1.49;61.72;99173.10;1698999;82;21602;-57
2021/01/14 07:31:58;;;;;;;23.98;13.85;;;;;;;1.51;61.75;99172.19;1739262;82;21191;-56
2021/01/14 07:37:52;;;;;;;20.20;12.70;;;;;;;1.49;62.01;99176.98;1681946;83;21560;-56
2021/01/14 07:40:28;;;;;;;24.35;12.50;;;;;;;1.49;62.23;99173.58;1689296;83;21195;-57
2021/01/14 07:42:57;;;;;;;;;;;;;;;1.52;62.20;99173.86;1696590;83;21692;-57
2021/01/14 07:45:24;;;;;;;20.57;12.98;;;;;;;1.52;62.40;99176.45;1683924;84;20581;-56
2021/01/14 07:47:52;;;;;;;21.33;12.07;;;;;;;1.47;62.72;99176.73;1684400;83;21621;-57
2021/01/14 07:50:28;;;;;;;23.62;13.30;;;;;;;1.51;62.92;99176.07;1687993;83;21246;-57
2021/01/14 07:52:56;;;;;;;;;;;;;;;1.52;62.90;99170.80;1701167;83;21218;-59
2021/01/14 07:55:37;;;;;;;21.15;13.98;;;;;;;1.57;63.00;99176.53;1693125;83;20375;-56
2021/01/14 07:58:22;;;;;;;22.25;13.18;;;;;;;1.51;63.37;99175.60;1703006;83;21090;-56
2021/01/14 08:01:05;;;;;;;27.82;16.07;;;;;;;1.54;63.34;99180.59;1702672;83;21244;-56
2021/01/14 08:03:41;;;;;;;22.30;12.65;;;;;;;1.56;63.34;99178.73;1685807;83;21211;-57
2021/01/14 08:06:34;;;;;;;23.30;15.40;;;;;;;1.60;63.58;99178.94;1689510;83;21708;-57
2021/01/14 08:09:12;;;;;;;26.20;16.37;;;;;;;1.63;63.52;99184.38;1653277;84;21215;-56
2021/01/14 08:11:49;;;;;;;30.72;15.25;;;;;;;1.65;63.63;99184.66;1649984;84;21188;-57
2021/01/14 08:14:22;;;;;;;26.93;15.08;;;;;;;1.67;63.64;99187.16;1660922;85;21218;-57
2021/01/14 08:16:54;;;;;;;26.40;16.30;;;;;;;1.66;63.75;99188.94;1658707;84;21163;-56
2021/01/14 08:30:28;;;;;;;34.18;17.98;;;;;;;1.58;64.54;99187.72;1823111;76;22720;-56
2021/01/14 08:33:05;;;;;;;34.15;20.77;;;;;;;1.53;64.56;99193.22;1772863;77;21192;-56
2021/01/14 08:51:45;;;;;;;52.67;21.73;;;;;;;1.42;65.38;99187.84;1728935;81;24834;-56
2021/01/14 08:54:13;;;;;;;35.30;21.00;;;;;;;1.39;65.46;99182.84;1685167;83;21196;-56
2021/01/14 08:57:05;;;;;;;36.28;20.57;;;;;;;1.45;65.35;99184.59;1761031;79;22731;-56
2021/01/14 08:59:33;;;;;;;39.58;19.80;;;;;;;1.49;65.39;99181.34;1726882;81;21231;-56
2021/01/14 09:02:00;;;;;;;34.35;20.97;;;;;;;1.51;65.31;99184.67;1735093;82;21215;-56
2021/01/14 09:04:27;;;;;;;32.03;20.32;;;;;;;1.58;65.20;99185.13;1727158;82;21172;-55
2021/01/14 09:06:55;;;;;;;32.60;19.65;;;;;;;1.62;65.10;99184.84;1697915;82;21188;-56
2021/01/14 09:09:23;;;;;;;31.75;18.52;;;;;;;1.64;64.97;99177.80;1703220;82;21219;-56
2021/01/14 09:11:51;;;;;;;37.83;20.40;;;;;;;1.64;64.91;99175.21;1722608;82;21259;-55
2021/01/14 09:14:19;;;;;;;34.73;20.10;;;;;;;1.67;64.94;99173.73;1692768;82;21172;-55
2021/01/14 09:16:48;;;;;;;40.92;20.90;;;;;;;1.76;64.75;99171.48;1731575;80;21120;-55
2021/01/14 09:19:18;;;;;;;29.95;18.40;;;;;;;1.79;64.71;99170.00;1700777;82;21243;-56
2021/01/14 09:21:47;;;;;;;36.70;19.90;;;;;;;1.81;64.66;99170.25;1727077;82;21167;-56
2021/01/14 09:24:15;;;;;;;35.63;19.23;;;;;;;1.83;64.74;99172.75;1731863;82;21200;-55
2021/01/14 09:26:44;;;;;;;34.80;19.57;;;;;;;1.86;64.69;99176.45;1731030;82;21426;-55
2021/01/14 09:29:11;;;;;;;34.85;19.75;;;;;;;1.86;64.75;99175.16;1708722;80;21212;-55
2021/01/14 09:31:40;;;;;;;37.45;19.75;;;;;;;1.89;64.73;99171.08;1725923;82;21152;-56
2021/01/14 09:34:09;;;;;;;33.65;20.17;;;;;;;1.91;64.83;99174.41;1723296;82;21132;-56
2021/01/14 09:36:37;;;;;;;37.33;19.32;;;;;;;1.96;64.81;99179.30;1724956;82;21173;-56
2021/01/14 09:39:15;;;;;;;45.65;20.05;;;;;;;1.96;64.63;99178.83;1726832;80;21213;-56
2021/01/14 09:41:42;;;;;;;32.88;18.55;;;;;;;1.98;64.53;99188.64;1705749;82;21204;-56
2021/01/14 09:46:49;;;;;;;34.08;18.57;;;;;;;2.02;64.55;99175.03;1822357;76;22731;-55
2021/01/14 09:49:19;;;;;;;33.25;19.02;;;;;;;2.00;64.54;99171.68;1775491;79;21124;-56
2021/01/14 09:51:47;;;;;;;41.90;20.02;;;;;;;2.00;64.60;99174.27;1761557;79;21191;-55
2021/01/14 09:54:15;;;;;;;37.83;21.27;;;;;;;1.95;64.59;99170.70;1771490;79;21175;-55
2021/01/14 09:56:46;;;;;;;36.15;20.20;;;;;;;1.94;64.69;99181.17;1800614;79;21187;-56
2021/01/14 09:59:20;;;;;;;32.35;19.07;;;;;;;1.99;64.58;99172.16;1770777;79;21195;-56
2021/01/14 10:02:20;;;;;;;34.70;16.73;;;;;;;1.95;64.55;99171.14;1762159;79;21239;-58
2021/01/14 10:04:58;;;;;;;30.23;18.77;;;;;;;1.92;64.62;99166.17;1803919;78;21195;-59
2021/01/14 10:07:26;;;;;;;31.87;17.85;;;;;;;1.93;64.68;99168.64;1740737;80;21123;-59
2021/01/14 10:09:55;;;;;;;30.82;17.25;;;;;;;1.95;64.61;99169.84;1746327;81;21060;-59
2021/01/14 10:12:23;;;;;;;33.18;17.37;;;;;;;1.94;64.51;99166.43;1773034;79;21156;-59
2021/01/14 10:15:11;;;;;;;32.75;17.62;;;;;;;1.92;64.46;99163.11;1773536;79;21179;-59
2021/01/14 10:17:41;;;;;;;34.30;18.23;;;;;;;1.92;64.45;99164.88;1796264;79;21256;-58
2021/01/14 10:20:12;;;;;;;33.10;18.32;;;;;;;1.91;64.66;99163.20;1779001;79;21211;-58
2021/01/14 10:22:50;;;;;;;29.15;17.95;;;;;;;1.91;64.82;99167.92;1801075;79;21607;-58
2021/01/14 10:25:19;;;;;;;27.82;17.45;;;;;;;1.93;64.80;99169.94;1765304;79;21179;-57
2021/01/14 10:28:12;;;;;;;35.60;18.05;;;;;;;1.96;64.74;99164.56;1771918;80;21184;-56
2021/01/14 10:30:43;;;;;;;31.10;18.32;;;;;;;1.97;64.74;99158.45;1799619;79;21432;-58
2021/01/14 10:33:11;;;;;;;29.87;18.30;;;;;;;1.99;64.78;99151.40;1802803;79;21164;-57
2021/01/14 10:35:39;;;;;;;34.95;18.87;;;;;;;2.01;64.72;99150.83;1805137;79;21096;-58
2021/01/14 10:38:15;;;;;;;28.10;15.90;;;;;;;2.05;64.57;99143.67;1800201;79;21701;-59
2021/01/14 10:40:45;;;;;;;27.15;17.52;;;;;;;2.07;64.45;99139.69;1745820;80;21240;-58
2021/01/14 10:43:19;;;;;;;26.62;16.55;;;;;;;2.08;64.48;99138.77;1740081;81;21266;-58
2021/01/14 10:45:46;;;;;;;24.82;15.98;;;;;;;2.06;64.57;99138.86;1737718;80;21247;-58
2021/01/14 10:48:15;;;;;;;27.45;16.12;;;;;;;2.08;64.57;99140.06;1666243;81;21623;-57
2021/01/14 10:50:52;;;;;;;31.05;16.23;;;;;;;2.02;64.55;99138.23;1799785;79;21136;-58
2021/01/14 10:53:33;;;;;;;32.73;16.42;;;;;;;2.00;64.49;99136.21;1797422;77;21116;-58
2021/01/14 10:56:12;;;;;;;26.93;16.00;;;;;;;1.97;64.61;99133.81;1797014;79;21365;-58
2021/01/14 10:58:40;;;;;;;31.82;19.45;;;;;;;2.00;64.69;99134.91;1803540;79;21199;-58
2021/01/14 11:01:17;;;;;;;35.20;17.50;;;;;;;2.01;64.71;99128.77;1799342;79;21117;-59
2021/01/14 11:03:45;;;;;;;29.45;16.48;;;;;;;2.07;64.66;99129.30;1802979;79;21148;-58
2021/01/14 11:06:12;;;;;;;28.50;17.32;;;;;;;2.08;64.70;99130.98;1774471;79;21677;-58
2021/01/14 11:08:46;;;;;;;32.30;19.42;;;;;;;2.10;64.75;99128.67;1763736;79;21419;-58
2021/01/14 11:11:15;;;;;;;;;;;;;;;2.12;64.77;99127.24;1778325;79;21135;-57
2021/01/14 11:13:49;;;;;;;33.55;16.97;;;;;;;2.13;64.87;99126.32;1800248;79;20755;-57
2021/01/14 11:16:20;;;;;;;37.55;18.57;;;;;;;2.08;65.13;99121.90;1798438;79;21104;-58
2021/01/14 11:18:51;;;;;;;36.00;18.27;;;;;;;2.11;65.12;99125.59;1802081;78;21623;-56
2021/01/14 11:21:31;;;;;;;32.25;19.12;;;;;;;2.11;64.88;99123.83;1798412;79;21240;-62
2021/01/14 11:23:59;;;;;;;36.15;17.77;;;;;;;2.12;64.91;99120.75;1808441;79;21207;-60
2021/01/14 11:26:28;;;;;;;26.48;16.10;;;;;;;2.11;65.07;99121.70;1790635;79;21191;-61
2021/01/14 11:28:56;;;;;;;34.13;18.17;;;;;;;2.13;65.15;99125.02;1800345;77;21237;-62
2021/01/14 11:31:25;;;;;;;41.85;18.30;;;;;;;2.13;65.28;99123.73;1742357;80;21243;-64
2021/01/14 11:33:53;;;;;;;28.65;18.00;;;;;;;2.15;65.33;99125.75;1741143;81;21244;-61
2021/01/14 11:36:21;;;;;;;33.00;19.15;;;;;;;2.14;65.34;99122.81;1788650;79;21206;-58
2021/01/14 11:38:49;;;;;;;31.57;16.95;;;;;;;2.11;65.39;99113.92;1805308;78;21215;-59
2021/01/14 11:41:19;;;;;;;30.77;18.32;;;;;;;2.09;65.45;99112.72;1797950;77;21186;-59
2021/01/14 11:54:51;;;;;;;32.05;17.90;;;;;;;2.12;65.64;99111.67;1856460;75;26200;-62
2021/01/14 11:57:20;;;;;;;40.85;20.77;;;;;;;2.10;65.67;99110.95;1800099;76;21295;-61
2021/01/14 11:59:47;;;;;;;29.82;19.12;;;;;;;2.11;65.57;99115.22;1772363;79;21181;-62
2021/01/14 12:02:15;;;;;;;33.05;20.62;;;;;;;2.12;65.43;99118.16;1736591;81;21219;-61
2021/01/14 12:04:42;;;;;;;36.88;20.08;;;;;;;2.07;65.39;99105.51;1740256;80;21155;-61
2021/01/14 12:07:09;;;;;;;38.45;19.17;;;;;;;2.02;65.38;99106.28;1779644;78;21168;-62
2021/01/14 12:09:36;;;;;;;31.77;18.73;;;;;;;1.92;65.57;99106.03;1770903;79;21209;-61
2021/01/14 12:12:05;;;;;;;39.63;19.67;;;;;;;1.90;65.75;99109.64;1771897;79;21518;-60
2021/01/14 12:25:32;;;;;;;37.42;21.05;;;;;;;1.83;66.13;99103.58;1873103;74;22674;-61
2021/01/14 12:28:01;;;;;;;35.52;20.75;;;;;;;1.79;66.19;99106.45;1835501;77;21101;-61
2021/01/14 12:30:28;;;;;;;30.85;19.32;;;;;;;1.84;66.15;99110.88;1838033;77;22866;-62
2021/01/14 12:32:56;;;;;;;35.73;19.20;;;;;;;1.96;65.96;99111.38;1820715;76;21174;-62
2021/01/14 12:35:24;;;;;;;38.05;19.62;;;;;;;2.10;65.77;99112.24;1842527;76;21221;-62
2021/01/14 12:37:51;;;;;;;34.15;19.57;;;;;;;2.20;65.55;99112.00;1810960;77;21203;-66
2021/01/14 12:40:19;;;;;;;34.35;19.98;;;;;;;2.24;65.44;99113.48;1839976;75;21491;-62
2021/01/14 12:42:47;;;;;;;35.73;19.45;;;;;;;2.27;65.27;99106.80;1745823;80;21238;-61
2021/01/14 12:45:15;;;;;;;37.73;20.57;;;;;;;2.30;65.27;99115.66;1813869;78;21774;-62
2021/01/14 12:47:43;;;;;;;36.98;20.50;;;;;;;2.28;65.26;99114.93;1784331;78;21124;-60
2021/01/14 12:50:14;;;;;;;40.40;21.35;;;;;;;2.27;65.23;99110.69;1780437;78;21202;-66
2021/01/14 12:52:42;;;;;;;43.78;22.27;;;;;;;2.26;65.18;99112.91;1785934;78;21170;-59
2021/01/14 12:55:11;;;;;;;30.48;19.75;;;;;;;2.26;65.08;99118.09;1791387;79;21197;-59
2021/01/14 12:57:38;;;;;;;39.08;22.60;;;;;;;2.20;65.15;99116.75;1799757;79;21139;-59
2021/01/14 13:00:07;;;;;;;35.45;19.52;;;;;;;2.18;65.21;99113.40;1795764;79;21202;-59
2021/01/14 13:02:35;;;;;;;35.28;20.20;;;;;;;2.17;65.24;99117.39;1779090;78;21204;-59
2021/01/14 13:05:05;;;;;;;38.08;21.07;;;;;;;2.16;65.26;99121.76;1806025;78;21165;-59
2021/01/14 13:07:37;;;;;;;38.48;21.52;;;;;;;2.15;65.32;99124.45;1732722;81;21230;-59
2021/01/14 13:10:07;;;;;;;40.33;22.00;;;;;;;2.17;65.35;99118.69;1812039;78;21131;-60
2021/01/14 13:12:35;;;;;;;36.65;21.27;;;;;;;2.15;65.40;99121.41;1808681;78;21230;-59
2021/01/14 13:15:04;;;;;;;36.03;21.20;;;;;;;2.14;65.41;99117.62;1767661;79;21194;-60
2021/01/14 13:17:32;;;;;;;36.05;22.73;;;;;;;2.12;65.52;99122.91;1801805;78;21146;-60
2021/01/14 13:20:00;;;;;;;36.60;21.42;;;;;;;2.14;65.55;99118.44;1780045;79;21206;-61
2021/01/14 13:22:27;;;;;;;33.53;21.00;;;;;;;2.13;65.63;99121.95;1777797;79;21669;-61
2021/01/14 13:24:54;;;;;;;38.73;21.73;;;;;;;2.12;65.68;99125.94;1768876;80;21164;-61
2021/01/14 13:27:22;;;;;;;33.80;21.02;;;;;;;2.10;65.71;99122.63;1770388;80;21654;-61
2021/01/14 13:29:49;;;;;;;40.00;21.40;;;;;;;2.09;65.81;99127.47;1775159;79;21145;-60